sensor_id;sensor_type;location;lat;lon;timestamp;P1;durP1;ratioP1;P2;durP2;ratioP2
47599;SDS011;33323;52.124;6.018;2023-05-10T00:00:55;13.68;;;8.50;;
47599;SDS011;33323;52.124;6.018;2023-05-10T00:03:22;12.77;;;8.52;;
47599;SDS011;33323;52.124;6.018;2023-05-10T00:05:49;15.32;;;8.90;;
47599;SDS011;33323;52.124;6.018;2023-05-10T00:08:16;13.85;;;9.25;;
47599;SDS011;33323;52.124;6.018;2023-05-10T00:10:43;14.23;;;8.63;;
47599;SDS011;33323;52.124;6.018;2023-05-10T00:13:10;13.18;;;8.63;;
47599;SDS011;33323;52.124;6.018;2023-05-10T00:15:37;15.00;;;9.52;;
47599;SDS011;33323;52.124;6.018;2023-05-10T00:18:04;11.38;;;8.05;;
47599;SDS011;33323;52.124;6.018;2023-05-10T00:20:31;12.98;;;7.97;;
47599;SDS011;33323;52.124;6.018;2023-05-10T00:22:58;14.38;;;8.88;;
47599;SDS011;33323;52.124;6.018;2023-05-10T00:25:25;14.15;;;8.40;;
47599;SDS011;33323;52.124;6.018;2023-05-10T00:27:52;15.52;;;9.60;;
47599;SDS011;33323;52.124;6.018;2023-05-10T00:30:21;15.52;;;10.40;;
47599;SDS011;33323;52.124;6.018;2023-05-10T00:32:48;17.83;;;10.65;;
47599;SDS011;33323;52.124;6.018;2023-05-10T00:35:16;20.27;;;11.70;;
47599;SDS011;33323;52.124;6.018;2023-05-10T00:37:43;20.00;;;10.57;;
47599;SDS011;33323;52.124;6.018;2023-05-10T00:40:10;22.58;;;12.88;;
47599;SDS011;33323;52.124;6.018;2023-05-10T00:42:39;21.70;;;11.80;;
47599;SDS011;33323;52.124;6.018;2023-05-10T00:45:06;21.23;;;11.95;;
47599;SDS011;33323;52.124;6.018;2023-05-10T00:47:34;21.65;;;12.73;;
47599;SDS011;33323;52.124;6.018;2023-05-10T00:50:02;17.80;;;11.07;;
47599;SDS011;33323;52.124;6.018;2023-05-10T00:52:30;19.17;;;12.93;;
47599;SDS011;33323;52.124;6.018;2023-05-10T00:54:57;23.25;;;12.45;;
47599;SDS011;33323;52.124;6.018;2023-05-10T00:57:24;24.85;;;14.15;;
47599;SDS011;33323;52.124;6.018;2023-05-10T00:59:51;22.65;;;14.02;;
47599;SDS011;33323;52.124;6.018;2023-05-10T01:02:19;22.10;;;13.23;;
47599;SDS011;33323;52.124;6.018;2023-05-10T01:04:46;22.60;;;14.20;;
47599;SDS011;33323;52.124;6.018;2023-05-10T01:07:15;24.13;;;13.45;;
47599;SDS011;33323;52.124;6.018;2023-05-10T01:09:42;23.30;;;14.93;;
47599;SDS011;33323;52.124;6.018;2023-05-10T01:12:10;24.83;;;14.20;;
47599;SDS011;33323;52.124;6.018;2023-05-10T01:14:37;22.98;;;13.73;;
47599;SDS011;33323;52.124;6.018;2023-05-10T01:17:05;27.05;;;13.30;;
47599;SDS011;33323;52.124;6.018;2023-05-10T01:19:34;28.70;;;15.93;;
47599;SDS011;33323;52.124;6.018;2023-05-10T01:25:22;20.23;;;12.77;;
47599;SDS011;33323;52.124;6.018;2023-05-10T01:33:59;28.23;;;15.45;;
47599;SDS011;33323;52.124;6.018;2023-05-10T01:36:40;26.60;;;17.10;;
47599;SDS011;33323;52.124;6.018;2023-05-10T01:39:20;32.70;;;17.38;;
47599;SDS011;33323;52.124;6.018;2023-05-10T01:42:07;30.52;;;15.43;;
47599;SDS011;33323;52.124;6.018;2023-05-10T01:44:37;29.35;;;16.15;;
47599;SDS011;33323;52.124;6.018;2023-05-10T01:50:33;31.08;;;17.23;;
47599;SDS011;33323;52.124;6.018;2023-05-10T01:53:06;37.28;;;18.52;;
47599;SDS011;33323;52.124;6.018;2023-05-10T01:55:43;32.95;;;18.60;;
47599;SDS011;33323;52.124;6.018;2023-05-10T02:01:14;39.83;;;19.13;;
47599;SDS011;33323;52.124;6.018;2023-05-10T02:03:43;40.75;;;19.98;;
47599;SDS011;33323;52.124;6.018;2023-05-10T02:06:11;46.17;;;20.75;;
47599;SDS011;33323;52.124;6.018;2023-05-10T02:08:41;47.40;;;21.52;;
47599;SDS011;33323;52.124;6.018;2023-05-10T02:11:09;55.33;;;23.17;;
47599;SDS011;33323;52.124;6.018;2023-05-10T02:13:40;43.90;;;21.45;;
47599;SDS011;33323;52.124;6.018;2023-05-10T02:16:09;47.90;;;21.65;;
47599;SDS011;33323;52.124;6.018;2023-05-10T02:18:38;48.75;;;23.33;;
47599;SDS011;33323;52.124;6.018;2023-05-10T02:21:07;53.13;;;24.80;;
47599;SDS011;33323;52.124;6.018;2023-05-10T02:23:38;49.15;;;22.77;;
47599;SDS011;33323;52.124;6.018;2023-05-10T02:26:05;62.47;;;25.50;;
47599;SDS011;33323;52.124;6.018;2023-05-10T02:28:34;58.40;;;24.25;;
47599;SDS011;33323;52.124;6.018;2023-05-10T02:31:04;60.78;;;25.48;;
47599;SDS011;33323;52.124;6.018;2023-05-10T02:33:32;58.90;;;26.42;;
47599;SDS011;33323;52.124;6.018;2023-05-10T02:36:01;58.72;;;25.60;;
47599;SDS011;33323;52.124;6.018;2023-05-10T02:38:30;61.05;;;25.42;;
47599;SDS011;33323;52.124;6.018;2023-05-10T02:40:59;66.05;;;27.85;;
47599;SDS011;33323;52.124;6.018;2023-05-10T02:43:28;63.17;;;26.10;;
47599;SDS011;33323;52.124;6.018;2023-05-10T02:45:58;62.08;;;26.60;;
47599;SDS011;33323;52.124;6.018;2023-05-10T02:48:26;54.88;;;26.55;;
47599;SDS011;33323;52.124;6.018;2023-05-10T02:50:53;57.25;;;26.63;;
47599;SDS011;33323;52.124;6.018;2023-05-10T02:53:23;76.20;;;27.23;;
47599;SDS011;33323;52.124;6.018;2023-05-10T02:56:01;63.05;;;26.13;;
47599;SDS011;33323;52.124;6.018;2023-05-10T02:58:39;67.90;;;29.35;;
47599;SDS011;33323;52.124;6.018;2023-05-10T03:01:06;61.53;;;27.40;;
47599;SDS011;33323;52.124;6.018;2023-05-10T03:03:37;70.82;;;28.85;;
47599;SDS011;33323;52.124;6.018;2023-05-10T03:06:04;70.57;;;29.23;;
47599;SDS011;33323;52.124;6.018;2023-05-10T03:08:31;67.32;;;28.65;;
47599;SDS011;33323;52.124;6.018;2023-05-10T03:14:39;72.90;;;29.02;;
47599;SDS011;33323;52.124;6.018;2023-05-10T03:16:56;72.03;;;31.98;;
47599;SDS011;33323;52.124;6.018;2023-05-10T03:19:42;66.13;;;29.60;;
47599;SDS011;33323;52.124;6.018;2023-05-10T03:22:26;69.38;;;28.58;;
47599;SDS011;33323;52.124;6.018;2023-05-10T03:25:18;71.40;;;28.17;;
47599;SDS011;33323;52.124;6.018;2023-05-10T03:27:49;69.28;;;28.92;;
47599;SDS011;33323;52.124;6.018;2023-05-10T03:30:18;70.97;;;30.17;;
47599;SDS011;33323;52.124;6.018;2023-05-10T03:32:46;72.45;;;30.27;;
47599;SDS011;33323;52.124;6.018;2023-05-10T03:35:15;61.85;;;26.70;;
47599;SDS011;33323;52.124;6.018;2023-05-10T03:37:43;71.00;;;28.00;;
47599;SDS011;33323;52.124;6.018;2023-05-10T03:40:10;69.72;;;28.33;;
47599;SDS011;33323;52.124;6.018;2023-05-10T03:42:40;72.68;;;30.85;;
47599;SDS011;33323;52.124;6.018;2023-05-10T03:45:07;75.70;;;30.25;;
47599;SDS011;33323;52.124;6.018;2023-05-10T03:47:36;70.85;;;29.10;;
47599;SDS011;33323;52.124;6.018;2023-05-10T03:50:03;68.07;;;29.65;;
47599;SDS011;33323;52.124;6.018;2023-05-10T03:52:31;73.30;;;29.13;;
47599;SDS011;33323;52.124;6.018;2023-05-10T03:54:58;65.35;;;29.58;;
47599;SDS011;33323;52.124;6.018;2023-05-10T03:57:25;74.80;;;29.17;;
47599;SDS011;33323;52.124;6.018;2023-05-10T03:59:52;74.55;;;28.95;;
47599;SDS011;33323;52.124;6.018;2023-05-10T04:02:19;70.32;;;28.42;;
47599;SDS011;33323;52.124;6.018;2023-05-10T04:04:46;62.50;;;27.88;;
47599;SDS011;33323;52.124;6.018;2023-05-10T04:07:14;64.10;;;28.23;;
47599;SDS011;33323;52.124;6.018;2023-05-10T04:09:41;66.97;;;26.85;;
47599;SDS011;33323;52.124;6.018;2023-05-10T04:12:08;69.82;;;28.85;;
47599;SDS011;33323;52.124;6.018;2023-05-10T04:14:36;55.83;;;24.98;;
47599;SDS011;33323;52.124;6.018;2023-05-10T04:17:03;63.55;;;26.65;;
47599;SDS011;33323;52.124;6.018;2023-05-10T04:19:30;67.97;;;26.05;;
47599;SDS011;33323;52.124;6.018;2023-05-10T04:21:58;66.78;;;26.20;;
47599;SDS011;33323;52.124;6.018;2023-05-10T04:24:25;67.65;;;27.42;;
47599;SDS011;33323;52.124;6.018;2023-05-10T04:26:53;62.75;;;25.88;;
47599;SDS011;33323;52.124;6.018;2023-05-10T04:29:23;62.25;;;25.20;;
47599;SDS011;33323;52.124;6.018;2023-05-10T04:31:50;55.70;;;24.38;;
47599;SDS011;33323;52.124;6.018;2023-05-10T04:34:17;53.90;;;24.02;;
47599;SDS011;33323;52.124;6.018;2023-05-10T04:36:44;55.17;;;26.50;;
47599;SDS011;33323;52.124;6.018;2023-05-10T04:39:11;60.35;;;24.85;;
47599;SDS011;33323;52.124;6.018;2023-05-10T04:41:40;63.88;;;27.02;;
47599;SDS011;33323;52.124;6.018;2023-05-10T04:44:07;54.17;;;24.67;;
47599;SDS011;33323;52.124;6.018;2023-05-10T04:46:34;59.47;;;27.65;;
47599;SDS011;33323;52.124;6.018;2023-05-10T04:49:01;63.25;;;26.52;;
47599;SDS011;33323;52.124;6.018;2023-05-10T04:51:28;75.47;;;26.58;;
47599;SDS011;33323;52.124;6.018;2023-05-10T04:53:55;70.20;;;29.38;;
47599;SDS011;33323;52.124;6.018;2023-05-10T04:56:31;66.68;;;26.33;;
47599;SDS011;33323;52.124;6.018;2023-05-10T04:58:59;69.85;;;27.38;;
47599;SDS011;33323;52.124;6.018;2023-05-10T05:01:26;68.85;;;27.33;;
47599;SDS011;33323;52.124;6.018;2023-05-10T05:03:53;64.43;;;26.60;;
47599;SDS011;33323;52.124;6.018;2023-05-10T05:06:20;65.07;;;26.65;;
47599;SDS011;33323;52.124;6.018;2023-05-10T05:08:48;67.80;;;25.58;;
47599;SDS011;33323;52.124;6.018;2023-05-10T05:11:16;73.00;;;26.70;;
47599;SDS011;33323;52.124;6.018;2023-05-10T05:13:44;67.35;;;26.45;;
47599;SDS011;33323;52.124;6.018;2023-05-10T05:16:11;59.40;;;25.35;;
47599;SDS011;33323;52.124;6.018;2023-05-10T05:18:38;59.75;;;25.55;;
47599;SDS011;33323;52.124;6.018;2023-05-10T05:21:15;59.83;;;24.95;;
47599;SDS011;33323;52.124;6.018;2023-05-10T05:23:46;62.72;;;24.95;;
47599;SDS011;33323;52.124;6.018;2023-05-10T05:26:13;65.43;;;24.13;;
47599;SDS011;33323;52.124;6.018;2023-05-10T05:28:41;56.78;;;24.13;;
47599;SDS011;33323;52.124;6.018;2023-05-10T05:31:08;52.08;;;23.50;;
47599;SDS011;33323;52.124;6.018;2023-05-10T05:33:36;58.80;;;25.15;;
47599;SDS011;33323;52.124;6.018;2023-05-10T05:36:03;61.25;;;24.70;;
47599;SDS011;33323;52.124;6.018;2023-05-10T05:38:32;62.05;;;25.33;;
47599;SDS011;33323;52.124;6.018;2023-05-10T05:40:59;59.03;;;25.35;;
47599;SDS011;33323;52.124;6.018;2023-05-10T05:43:26;71.22;;;27.67;;
47599;SDS011;33323;52.124;6.018;2023-05-10T05:45:53;67.25;;;26.58;;
47599;SDS011;33323;52.124;6.018;2023-05-10T05:48:20;65.30;;;27.42;;
47599;SDS011;33323;52.124;6.018;2023-05-10T05:50:47;68.93;;;26.30;;
47599;SDS011;33323;52.124;6.018;2023-05-10T05:53:15;68.45;;;26.50;;
47599;SDS011;33323;52.124;6.018;2023-05-10T05:55:52;77.40;;;28.58;;
47599;SDS011;33323;52.124;6.018;2023-05-10T05:58:26;79.55;;;27.73;;
47599;SDS011;33323;52.124;6.018;2023-05-10T06:00:54;75.88;;;28.27;;
47599;SDS011;33323;52.124;6.018;2023-05-10T06:03:21;76.68;;;28.40;;
47599;SDS011;33323;52.124;6.018;2023-05-10T06:05:48;77.75;;;28.52;;
47599;SDS011;33323;52.124;6.018;2023-05-10T06:08:15;68.13;;;27.58;;
47599;SDS011;33323;52.124;6.018;2023-05-10T06:10:42;65.45;;;26.45;;
47599;SDS011;33323;52.124;6.018;2023-05-10T06:13:10;68.57;;;25.13;;
47599;SDS011;33323;52.124;6.018;2023-05-10T06:15:38;57.33;;;25.00;;
47599;SDS011;33323;52.124;6.018;2023-05-10T06:18:05;62.78;;;26.52;;
47599;SDS011;33323;52.124;6.018;2023-05-10T06:20:32;67.68;;;24.73;;
47599;SDS011;33323;52.124;6.018;2023-05-10T06:22:59;60.08;;;24.08;;
47599;SDS011;33323;52.124;6.018;2023-05-10T06:25:26;62.08;;;25.40;;
47599;SDS011;33323;52.124;6.018;2023-05-10T06:27:53;61.28;;;24.52;;
47599;SDS011;33323;52.124;6.018;2023-05-10T06:30:24;66.57;;;26.42;;
47599;SDS011;33323;52.124;6.018;2023-05-10T06:32:55;72.32;;;26.73;;
47599;SDS011;33323;52.124;6.018;2023-05-10T06:35:23;68.10;;;27.85;;
47599;SDS011;33323;52.124;6.018;2023-05-10T06:37:50;80.32;;;28.25;;
47599;SDS011;33323;52.124;6.018;2023-05-10T06:40:17;74.20;;;26.67;;
47599;SDS011;33323;52.124;6.018;2023-05-10T06:42:46;83.13;;;31.92;;
47599;SDS011;33323;52.124;6.018;2023-05-10T06:45:14;75.80;;;27.83;;
47599;SDS011;33323;52.124;6.018;2023-05-10T06:47:43;78.75;;;28.27;;
47599;SDS011;33323;52.124;6.018;2023-05-10T06:50:10;69.40;;;26.48;;
47599;SDS011;33323;52.124;6.018;2023-05-10T06:52:37;92.43;;;29.83;;
47599;SDS011;33323;52.124;6.018;2023-05-10T06:55:05;86.55;;;30.23;;
47599;SDS011;33323;52.124;6.018;2023-05-10T06:57:33;75.05;;;27.75;;
47599;SDS011;33323;52.124;6.018;2023-05-10T07:00:01;79.65;;;29.35;;
47599;SDS011;33323;52.124;6.018;2023-05-10T07:02:30;72.80;;;29.13;;
47599;SDS011;33323;52.124;6.018;2023-05-10T07:04:57;77.43;;;29.38;;
47599;SDS011;33323;52.124;6.018;2023-05-10T07:07:28;81.18;;;29.45;;
47599;SDS011;33323;52.124;6.018;2023-05-10T07:09:56;78.75;;;28.10;;
47599;SDS011;33323;52.124;6.018;2023-05-10T07:12:24;81.65;;;30.55;;
47599;SDS011;33323;52.124;6.018;2023-05-10T07:14:51;82.25;;;28.45;;
47599;SDS011;33323;52.124;6.018;2023-05-10T07:17:18;77.38;;;29.77;;
47599;SDS011;33323;52.124;6.018;2023-05-10T07:19:46;71.47;;;26.55;;
47599;SDS011;33323;52.124;6.018;2023-05-10T07:22:14;74.78;;;28.02;;
47599;SDS011;33323;52.124;6.018;2023-05-10T07:24:43;66.35;;;27.38;;
47599;SDS011;33323;52.124;6.018;2023-05-10T07:27:10;72.78;;;25.77;;
47599;SDS011;33323;52.124;6.018;2023-05-10T07:29:37;72.22;;;26.25;;
47599;SDS011;33323;52.124;6.018;2023-05-10T07:32:05;66.85;;;26.20;;
47599;SDS011;33323;52.124;6.018;2023-05-10T07:34:32;72.10;;;26.42;;
47599;SDS011;33323;52.124;6.018;2023-05-10T07:36:59;65.25;;;25.00;;
47599;SDS011;33323;52.124;6.018;2023-05-10T07:39:27;66.00;;;25.73;;
47599;SDS011;33323;52.124;6.018;2023-05-10T07:41:55;69.45;;;23.73;;
47599;SDS011;33323;52.124;6.018;2023-05-10T07:44:22;67.13;;;24.10;;
47599;SDS011;33323;52.124;6.018;2023-05-10T07:46:50;64.15;;;24.17;;
47599;SDS011;33323;52.124;6.018;2023-05-10T07:49:17;55.30;;;21.48;;
47599;SDS011;33323;52.124;6.018;2023-05-10T07:51:44;74.63;;;23.48;;
47599;SDS011;33323;52.124;6.018;2023-05-10T07:54:11;57.45;;;21.33;;
47599;SDS011;33323;52.124;6.018;2023-05-10T07:56:39;58.05;;;21.17;;
47599;SDS011;33323;52.124;6.018;2023-05-10T07:59:14;45.88;;;19.67;;
47599;SDS011;33323;52.124;6.018;2023-05-10T08:01:43;57.03;;;20.60;;
47599;SDS011;33323;52.124;6.018;2023-05-10T08:04:11;48.83;;;20.00;;
47599;SDS011;33323;52.124;6.018;2023-05-10T08:06:39;43.80;;;19.00;;
47599;SDS011;33323;52.124;6.018;2023-05-10T08:09:07;52.13;;;19.38;;
47599;SDS011;33323;52.124;6.018;2023-05-10T08:11:34;46.67;;;18.60;;
47599;SDS011;33323;52.124;6.018;2023-05-10T08:14:01;51.63;;;22.98;;
47599;SDS011;33323;52.124;6.018;2023-05-10T08:16:29;50.70;;;18.80;;
47599;SDS011;33323;52.124;6.018;2023-05-10T08:18:56;51.55;;;20.40;;
47599;SDS011;33323;52.124;6.018;2023-05-10T08:21:23;60.00;;;24.52;;
47599;SDS011;33323;52.124;6.018;2023-05-10T08:23:50;55.25;;;22.83;;
47599;SDS011;33323;52.124;6.018;2023-05-10T08:26:17;51.58;;;22.20;;
47599;SDS011;33323;52.124;6.018;2023-05-10T08:28:45;58.63;;;24.73;;
47599;SDS011;33323;52.124;6.018;2023-05-10T08:31:11;60.88;;;25.67;;
47599;SDS011;33323;52.124;6.018;2023-05-10T08:33:38;50.42;;;22.65;;
47599;SDS011;33323;52.124;6.018;2023-05-10T08:36:08;54.03;;;22.45;;
47599;SDS011;33323;52.124;6.018;2023-05-10T08:38:35;46.83;;;21.20;;
47599;SDS011;33323;52.124;6.018;2023-05-10T08:41:03;48.00;;;19.30;;
47599;SDS011;33323;52.124;6.018;2023-05-10T08:43:31;39.88;;;19.30;;
47599;SDS011;33323;52.124;6.018;2023-05-10T08:46:01;45.50;;;18.48;;
47599;SDS011;33323;52.124;6.018;2023-05-10T08:48:31;45.17;;;20.55;;
47599;SDS011;33323;52.124;6.018;2023-05-10T08:51:01;32.53;;;16.40;;
47599;SDS011;33323;52.124;6.018;2023-05-10T08:53:30;37.95;;;17.88;;
47599;SDS011;33323;52.124;6.018;2023-05-10T08:56:00;34.88;;;18.98;;
47599;SDS011;33323;52.124;6.018;2023-05-10T08:58:28;39.22;;;17.52;;
47599;SDS011;33323;52.124;6.018;2023-05-10T09:00:56;31.63;;;16.88;;
47599;SDS011;33323;52.124;6.018;2023-05-10T09:03:24;36.22;;;17.95;;
47599;SDS011;33323;52.124;6.018;2023-05-10T09:05:51;35.00;;;16.70;;
47599;SDS011;33323;52.124;6.018;2023-05-10T09:08:18;35.83;;;17.75;;
47599;SDS011;33323;52.124;6.018;2023-05-10T09:10:46;34.67;;;16.10;;
47599;SDS011;33323;52.124;6.018;2023-05-10T09:13:14;31.45;;;15.38;;
47599;SDS011;33323;52.124;6.018;2023-05-10T09:15:43;32.88;;;16.20;;
47599;SDS011;33323;52.124;6.018;2023-05-10T09:18:11;28.15;;;14.43;;
47599;SDS011;33323;52.124;6.018;2023-05-10T09:20:39;28.23;;;13.32;;
47599;SDS011;33323;52.124;6.018;2023-05-10T09:23:07;30.05;;;14.02;;
47599;SDS011;33323;52.124;6.018;2023-05-10T09:25:34;25.58;;;13.43;;
47599;SDS011;33323;52.124;6.018;2023-05-10T09:28:01;19.73;;;12.05;;
47599;SDS011;33323;52.124;6.018;2023-05-10T09:30:32;24.58;;;11.75;;
47599;SDS011;33323;52.124;6.018;2023-05-10T09:33:00;24.35;;;12.40;;
47599;SDS011;33323;52.124;6.018;2023-05-10T09:35:28;22.15;;;11.55;;
47599;SDS011;33323;52.124;6.018;2023-05-10T09:38:04;24.55;;;9.82;;
47599;SDS011;33323;52.124;6.018;2023-05-10T09:40:32;21.85;;;10.52;;
47599;SDS011;33323;52.124;6.018;2023-05-10T09:43:00;17.95;;;9.00;;
47599;SDS011;33323;52.124;6.018;2023-05-10T09:45:33;18.42;;;10.38;;
47599;SDS011;33323;52.124;6.018;2023-05-10T09:48:04;19.77;;;9.52;;
47599;SDS011;33323;52.124;6.018;2023-05-10T09:50:33;28.27;;;10.05;;
47599;SDS011;33323;52.124;6.018;2023-05-10T09:53:01;19.15;;;9.90;;
47599;SDS011;33323;52.124;6.018;2023-05-10T09:55:42;17.70;;;10.18;;
47599;SDS011;33323;52.124;6.018;2023-05-10T09:58:12;18.20;;;9.20;;
47599;SDS011;33323;52.124;6.018;2023-05-10T10:00:41;15.80;;;10.35;;
47599;SDS011;33323;52.124;6.018;2023-05-10T10:03:14;19.20;;;9.80;;
47599;SDS011;33323;52.124;6.018;2023-05-10T10:05:43;17.80;;;9.82;;
47599;SDS011;33323;52.124;6.018;2023-05-10T10:08:11;19.52;;;9.73;;
47599;SDS011;33323;52.124;6.018;2023-05-10T10:10:40;16.05;;;8.45;;
47599;SDS011;33323;52.124;6.018;2023-05-10T10:13:11;20.60;;;8.98;;
47599;SDS011;33323;52.124;6.018;2023-05-10T10:15:40;16.20;;;9.15;;
47599;SDS011;33323;52.124;6.018;2023-05-10T10:18:13;15.18;;;9.18;;
47599;SDS011;33323;52.124;6.018;2023-05-10T10:20:43;16.42;;;9.13;;
47599;SDS011;33323;52.124;6.018;2023-05-10T10:23:11;21.40;;;11.02;;
47599;SDS011;33323;52.124;6.018;2023-05-10T10:25:42;22.27;;;9.43;;
47599;SDS011;33323;52.124;6.018;2023-05-10T10:28:14;20.58;;;11.73;;
47599;SDS011;33323;52.124;6.018;2023-05-10T10:30:53;17.33;;;8.82;;
47599;SDS011;33323;52.124;6.018;2023-05-10T10:35:58;22.48;;;11.30;;
47599;SDS011;33323;52.124;6.018;2023-05-10T10:38:37;20.35;;;10.70;;
47599;SDS011;33323;52.124;6.018;2023-05-10T10:41:35;14.73;;;9.75;;
47599;SDS011;33323;52.124;6.018;2023-05-10T10:54:50;18.35;;;10.18;;
47599;SDS011;33323;52.124;6.018;2023-05-10T10:57:19;18.50;;;10.43;;
47599;SDS011;33323;52.124;6.018;2023-05-10T10:59:47;18.42;;;9.07;;
47599;SDS011;33323;52.124;6.018;2023-05-10T11:07:56;18.75;;;9.55;;
47599;SDS011;33323;52.124;6.018;2023-05-10T11:10:26;17.73;;;8.75;;
47599;SDS011;33323;52.124;6.018;2023-05-10T11:13:00;13.68;;;8.23;;
47599;SDS011;33323;52.124;6.018;2023-05-10T11:15:36;12.48;;;7.78;;
47599;SDS011;33323;52.124;6.018;2023-05-10T11:18:18;13.02;;;7.65;;
47599;SDS011;33323;52.124;6.018;2023-05-10T11:20:57;13.98;;;7.50;;
47599;SDS011;33323;52.124;6.018;2023-05-10T11:23:33;11.93;;;6.40;;
47599;SDS011;33323;52.124;6.018;2023-05-10T11:26:16;10.82;;;5.97;;
47599;SDS011;33323;52.124;6.018;2023-05-10T11:28:45;11.77;;;5.68;;
47599;SDS011;33323;52.124;6.018;2023-05-10T11:31:15;9.52;;;5.75;;
47599;SDS011;33323;52.124;6.018;2023-05-10T11:36:13;10.40;;;6.20;;
47599;SDS011;33323;52.124;6.018;2023-05-10T11:38:43;10.13;;;5.80;;
47599;SDS011;33323;52.124;6.018;2023-05-10T11:41:11;11.40;;;5.38;;
47599;SDS011;33323;52.124;6.018;2023-05-10T11:43:39;9.80;;;5.45;;
47599;SDS011;33323;52.124;6.018;2023-05-10T11:46:07;8.20;;;4.78;;
47599;SDS011;33323;52.124;6.018;2023-05-10T11:48:41;9.45;;;4.85;;
47599;SDS011;33323;52.124;6.018;2023-05-10T11:51:09;10.65;;;4.88;;
47599;SDS011;33323;52.124;6.018;2023-05-10T11:53:37;5.82;;;3.53;;
47599;SDS011;33323;52.124;6.018;2023-05-10T11:56:07;5.72;;;3.63;;
47599;SDS011;33323;52.124;6.018;2023-05-10T11:58:37;7.47;;;2.90;;
47599;SDS011;33323;52.124;6.018;2023-05-10T12:01:06;5.40;;;4.03;;
47599;SDS011;33323;52.124;6.018;2023-05-10T12:03:35;6.25;;;3.67;;
47599;SDS011;33323;52.124;6.018;2023-05-10T12:06:03;5.50;;;2.70;;
47599;SDS011;33323;52.124;6.018;2023-05-10T12:08:30;9.50;;;3.80;;
47599;SDS011;33323;52.124;6.018;2023-05-10T12:11:05;5.50;;;3.22;;
47599;SDS011;33323;52.124;6.018;2023-05-10T12:13:38;5.03;;;2.83;;
47599;SDS011;33323;52.124;6.018;2023-05-10T12:16:12;3.38;;;2.40;;
47599;SDS011;33323;52.124;6.018;2023-05-10T12:18:53;3.63;;;2.58;;
47599;SDS011;33323;52.124;6.018;2023-05-10T12:21:23;5.28;;;2.97;;
47599;SDS011;33323;52.124;6.018;2023-05-10T12:24:00;6.95;;;3.58;;
47599;SDS011;33323;52.124;6.018;2023-05-10T12:26:29;6.03;;;2.97;;
47599;SDS011;33323;52.124;6.018;2023-05-10T12:31:57;4.85;;;3.17;;
47599;SDS011;33323;52.124;6.018;2023-05-10T12:34:32;4.75;;;3.65;;
47599;SDS011;33323;52.124;6.018;2023-05-10T12:37:02;7.38;;;4.00;;
47599;SDS011;33323;52.124;6.018;2023-05-10T12:39:43;4.22;;;3.30;;
47599;SDS011;33323;52.124;6.018;2023-05-10T12:42:11;7.35;;;3.63;;
47599;SDS011;33323;52.124;6.018;2023-05-10T12:44:38;5.45;;;4.20;;
47599;SDS011;33323;52.124;6.018;2023-05-10T12:47:06;7.35;;;4.22;;
47599;SDS011;33323;52.124;6.018;2023-05-10T12:49:33;6.30;;;3.85;;
47599;SDS011;33323;52.124;6.018;2023-05-10T12:52:00;10.20;;;4.80;;
47599;SDS011;33323;52.124;6.018;2023-05-10T12:54:27;8.95;;;5.03;;
47599;SDS011;33323;52.124;6.018;2023-05-10T12:56:54;8.35;;;4.43;;
47599;SDS011;33323;52.124;6.018;2023-05-10T12:59:21;11.70;;;4.70;;
47599;SDS011;33323;52.124;6.018;2023-05-10T13:01:49;8.40;;;4.43;;
47599;SDS011;33323;52.124;6.018;2023-05-10T13:04:16;7.60;;;4.40;;
47599;SDS011;33323;52.124;6.018;2023-05-10T13:06:43;7.25;;;5.30;;
47599;SDS011;33323;52.124;6.018;2023-05-10T13:09:10;9.02;;;5.30;;
47599;SDS011;33323;52.124;6.018;2023-05-10T13:11:37;9.48;;;5.93;;
47599;SDS011;33323;52.124;6.018;2023-05-10T13:14:04;7.53;;;5.10;;
47599;SDS011;33323;52.124;6.018;2023-05-10T13:16:31;9.90;;;4.90;;
47599;SDS011;33323;52.124;6.018;2023-05-10T13:18:59;7.47;;;4.28;;
47599;SDS011;33323;52.124;6.018;2023-05-10T13:21:26;6.13;;;4.47;;
47599;SDS011;33323;52.124;6.018;2023-05-10T13:23:53;9.02;;;5.28;;
47599;SDS011;33323;52.124;6.018;2023-05-10T13:26:20;7.20;;;4.70;;
47599;SDS011;33323;52.124;6.018;2023-05-10T13:28:47;7.60;;;5.10;;
47599;SDS011;33323;52.124;6.018;2023-05-10T13:31:15;10.00;;;5.95;;
47599;SDS011;33323;52.124;6.018;2023-05-10T13:33:42;9.30;;;4.60;;
47599;SDS011;33323;52.124;6.018;2023-05-10T13:36:09;7.97;;;4.72;;
47599;SDS011;33323;52.124;6.018;2023-05-10T13:38:36;8.70;;;4.70;;
47599;SDS011;33323;52.124;6.018;2023-05-10T13:41:04;8.85;;;4.78;;
47599;SDS011;33323;52.124;6.018;2023-05-10T13:43:31;9.63;;;5.13;;
47599;SDS011;33323;52.124;6.018;2023-05-10T13:45:58;8.10;;;4.95;;
47599;SDS011;33323;52.124;6.018;2023-05-10T13:48:25;7.90;;;4.20;;
47599;SDS011;33323;52.124;6.018;2023-05-10T13:50:53;7.15;;;4.28;;
47599;SDS011;33323;52.124;6.018;2023-05-10T13:53:20;6.28;;;3.80;;
47599;SDS011;33323;52.124;6.018;2023-05-10T13:55:47;8.20;;;4.25;;
47599;SDS011;33323;52.124;6.018;2023-05-10T13:58:15;5.18;;;3.45;;
47599;SDS011;33323;52.124;6.018;2023-05-10T14:00:42;6.93;;;4.13;;
47599;SDS011;33323;52.124;6.018;2023-05-10T14:03:09;9.40;;;4.32;;
47599;SDS011;33323;52.124;6.018;2023-05-10T14:05:37;6.30;;;4.15;;
47599;SDS011;33323;52.124;6.018;2023-05-10T14:08:04;9.13;;;4.80;;
47599;SDS011;33323;52.124;6.018;2023-05-10T14:10:31;6.28;;;4.43;;
47599;SDS011;33323;52.124;6.018;2023-05-10T14:12:58;5.18;;;4.03;;
47599;SDS011;33323;52.124;6.018;2023-05-10T14:15:25;7.68;;;4.38;;
47599;SDS011;33323;52.124;6.018;2023-05-10T14:17:52;7.30;;;3.50;;
47599;SDS011;33323;52.124;6.018;2023-05-10T14:20:19;8.40;;;4.30;;
47599;SDS011;33323;52.124;6.018;2023-05-10T14:22:46;7.18;;;4.30;;
47599;SDS011;33323;52.124;6.018;2023-05-10T14:25:13;7.97;;;4.72;;
47599;SDS011;33323;52.124;6.018;2023-05-10T14:27:41;7.10;;;3.83;;
47599;SDS011;33323;52.124;6.018;2023-05-10T14:30:09;14.35;;;5.35;;
47599;SDS011;33323;52.124;6.018;2023-05-10T14:32:36;6.07;;;3.60;;
47599;SDS011;33323;52.124;6.018;2023-05-10T14:35:03;4.35;;;2.95;;
47599;SDS011;33323;52.124;6.018;2023-05-10T14:37:32;4.43;;;3.10;;
47599;SDS011;33323;52.124;6.018;2023-05-10T14:39:59;3.28;;;2.53;;
47599;SDS011;33323;52.124;6.018;2023-05-10T14:42:27;6.63;;;3.70;;
47599;SDS011;33323;52.124;6.018;2023-05-10T14:44:54;5.82;;;3.00;;
47599;SDS011;33323;52.124;6.018;2023-05-10T14:47:21;9.20;;;3.90;;
47599;SDS011;33323;52.124;6.018;2023-05-10T14:49:48;7.18;;;3.25;;
47599;SDS011;33323;52.124;6.018;2023-05-10T14:52:15;5.97;;;3.40;;
47599;SDS011;33323;52.124;6.018;2023-05-10T14:54:42;5.07;;;3.45;;
47599;SDS011;33323;52.124;6.018;2023-05-10T14:57:09;5.50;;;3.50;;
47599;SDS011;33323;52.124;6.018;2023-05-10T14:59:36;9.85;;;3.42;;
47599;SDS011;33323;52.124;6.018;2023-05-10T15:02:04;5.25;;;3.35;;
47599;SDS011;33323;52.124;6.018;2023-05-10T15:04:32;4.53;;;3.10;;
47599;SDS011;33323;52.124;6.018;2023-05-10T15:06:59;4.40;;;2.83;;
47599;SDS011;33323;52.124;6.018;2023-05-10T15:09:26;3.90;;;2.72;;
47599;SDS011;33323;52.124;6.018;2023-05-10T15:11:54;6.60;;;3.40;;
47599;SDS011;33323;52.124;6.018;2023-05-10T15:14:22;5.88;;;3.38;;
47599;SDS011;33323;52.124;6.018;2023-05-10T15:16:49;5.00;;;3.22;;
47599;SDS011;33323;52.124;6.018;2023-05-10T15:19:17;4.30;;;3.10;;
47599;SDS011;33323;52.124;6.018;2023-05-10T15:21:43;4.50;;;2.95;;